Flight Track Log - Related Links

Times and Time Zones

All times are in EDT time to prevent confusion due to time zone crossing. See the ASQ5164 flight status page for this flight to view local times or setup timezone preferences in your user account.


Time Position Orientation Groundspeed Altitude Reporting Facility
EDT Latitude Longitude Course Direction KTS MPH feet Rate Location/Type
Mon 12:00:29 AM 44.9000 -93.2333 270° West 170 196 1,900  Level Minneapolis TRACON
Mon 12:01:29 AM 44.9000 -93.3167 270° West 189 217 3,800 1,902 Climbing Minneapolis TRACON
Mon 12:02:32 AM 44.8617 -93.3728 226° Southwest 219 252 5,800 2,390 Climbing Minneapolis Center
Mon 12:03:32 AM 44.8189 -93.4428 229° Southwest 235 270 8,700 2,579 Climbing Minneapolis Center
Mon 12:04:33 AM 44.7750 -93.5189 231° Southwest 251 289 11,000 1,934 Climbing Minneapolis Center
Mon 12:05:33 AM 44.7236 -93.6067 231° Southwest 295 339 12,600 1,537 Climbing Minneapolis Center
Mon 12:06:34 AM 44.6664 -93.7039 230° Southwest 324 373 14,100 1,525 Climbing Minneapolis Center
Mon 12:07:35 AM 44.6039 -93.8094 230° Southwest 349 402 15,700 1,636 Climbing Minneapolis Center
Mon 12:08:35 AM 44.5389 -93.9253 232° Southwest 368 423 17,400 1,884 Climbing Minneapolis Center
Mon 12:09:36 AM 44.4889 -94.0442 240° Southwest 368 423 19,500 1,721 Climbing Minneapolis Center
Mon 12:10:37 AM 44.4483 -94.1753 247° West 367 422 20,900 1,488 Climbing Minneapolis Center
Mon 12:11:37 AM 44.4067 -94.3069 246° West 369 425 22,500 1,488 Climbing Minneapolis Center
Mon 12:12:38 AM 44.3550 -94.4650 245° Southwest 369 425 23,900 744 Climbing Minneapolis Center
Mon 12:13:38 AM 44.3111 -94.6006 246° West 382 440 24,000 50 Climbing Minneapolis Center
Mon 12:14:39 AM 44.2689 -94.7281 245° Southwest 388 447 24,000  Level Minneapolis Center
Mon 12:15:39 AM 44.2233 -94.8672 245° Southwest 391 450 24,000  Level Minneapolis Center
Mon 12:16:40 AM 44.1767 -95.0056 245° Southwest 392 451 24,000  Level Minneapolis Center
Mon 12:17:40 AM 44.1314 -95.1442 246° West 392 451 24,000  Level Minneapolis Center
Mon 12:18:41 AM 44.0858 -95.2803 245° Southwest 392 451 24,000  Level Minneapolis Center
Mon 12:19:41 AM 44.0389 -95.4164 244° Southwest 392 451 24,000  Level Minneapolis Center
Mon 12:20:42 AM 43.9933 -95.5550 245° Southwest 392 451 24,000 -397 Level Minneapolis Center
Mon 12:21:42 AM 43.9478 -95.6875 245° Southwest 383 441 23,200 -1,636 Descending Minneapolis Center
Mon 12:22:43 AM 43.9033 -95.8178 245° Southwest 376 433 20,700 -2,628 Descending Minneapolis Center
Mon 12:23:43 AM 43.8606 -95.9428 245° Southwest 362 417 17,900 -2,628 Descending Minneapolis Center
Mon 12:24:44 AM 43.8197 -96.0597 244° Southwest 340 391 15,400 -2,479 Descending Minneapolis Center
Mon 12:25:44 AM 43.7825 -96.1692 245° Southwest 318 366 12,900 -2,182 Descending Minneapolis Center
Mon 12:26:45 AM 43.7467 -96.2739 245° Southwest 304 350 11,000 -1,636 Descending Minneapolis Center
Mon 12:27:45 AM 43.7372 -96.3719 262° West 266 306 9,600 -1,700 Descending Minneapolis Center
Mon 12:28:45 AM 43.7336 -96.4689 267° West 256 295 7,600 -1,934 Descending Minneapolis Center
Mon 12:29:46 AM 43.7267 -96.5642 264° West 253 291 5,700 -1,488 Descending Minneapolis Center
Mon 12:30:46 AM 43.7011 -96.6544 249° West 252 290 4,600 -992 Descending Minneapolis Center
Mon 12:31:47 AM 43.6742 -96.7275 243° Southwest 235 270 3,700 -942 Descending Minneapolis Center
Mon 12:32:47 AM 43.6439 -96.7669 223° Southwest 191 220 2,700 -1,000 Descending Minneapolis Center
Mon 12:33:47 AM 43.6078 -96.7558 167° South 157 181 1,700 -595 Descending Minneapolis Center
Mon 12:34:48 AM 43.5653 -96.7292 156° South 152 175 1,500 -197 Descending Minneapolis Center
Mon 12:36:00 AM 43.5667 -96.7333 235° Southwest  Level FlightAware Approximate

Login

Don't have an account? Register now (free) for customized features, flight alerts, and more!